Terminal Aerodrome Forecast
Issued by NWS Billings, MT

Home | Current Version | Previous Version | Text Only | Print | Product List | Glossary On
Versions: 1 2 3 4 5 6 7 8 9 10 11 12 13 14 15 16 17 18 19 20 21 22 23
136
FTUS45 KBYZ 220527
TAFSHR
TAF
KSHR 220527Z 2206/2306 VRB06KT P6SM FEW150
     FM220800 31013KT P6SM SCT150
     FM221200 VRB05KT P6SM FEW150
     FM221600 09008KT P6SM SCT150=

USA.gov is the U.S. government's official web portal to all federal, state and local government web resources and services.